sensor_id;sensor_type;location;lat;lon;timestamp;P1;durP1;ratioP1;P2;durP2;ratioP2
25153;SDS011;47555;51.038;6.280;2023-04-01T00:01:19;2.15;;;0.73;;
25153;SDS011;47555;51.038;6.280;2023-04-01T00:03:45;4.15;;;0.88;;
25153;SDS011;47555;51.038;6.280;2023-04-01T00:06:11;1.63;;;0.90;;
25153;SDS011;47555;51.038;6.280;2023-04-01T00:08:39;3.20;;;0.88;;
25153;SDS011;47555;51.038;6.280;2023-04-01T00:11:05;1.70;;;1.02;;
25153;SDS011;47555;51.038;6.280;2023-04-01T00:13:30;1.00;;;0.90;;
25153;SDS011;47555;51.038;6.280;2023-04-01T00:15:56;2.55;;;0.95;;
25153;SDS011;47555;51.038;6.280;2023-04-01T00:18:21;3.05;;;1.40;;
25153;SDS011;47555;51.038;6.280;2023-04-01T00:20:48;1.98;;;0.80;;
25153;SDS011;47555;51.038;6.280;2023-04-01T00:23:16;0.98;;;0.95;;
25153;SDS011;47555;51.038;6.280;2023-04-01T00:25:43;3.10;;;0.90;;
25153;SDS011;47555;51.038;6.280;2023-04-01T00:28:11;2.55;;;1.48;;
25153;SDS011;47555;51.038;6.280;2023-04-01T00:30:37;4.53;;;1.00;;
25153;SDS011;47555;51.038;6.280;2023-04-01T00:33:03;1.02;;;0.70;;
25153;SDS011;47555;51.038;6.280;2023-04-01T00:35:29;1.95;;;1.02;;
25153;SDS011;47555;51.038;6.280;2023-04-01T00:37:55;4.00;;;1.00;;
25153;SDS011;47555;51.038;6.280;2023-04-01T00:40:32;1.58;;;0.80;;
25153;SDS011;47555;51.038;6.280;2023-04-01T00:43:00;4.65;;;0.90;;
25153;SDS011;47555;51.038;6.280;2023-04-01T00:45:33;2.30;;;0.90;;
25153;SDS011;47555;51.038;6.280;2023-04-01T00:48:02;2.05;;;0.60;;
25153;SDS011;47555;51.038;6.280;2023-04-01T00:50:33;3.08;;;0.88;;
25153;SDS011;47555;51.038;6.280;2023-04-01T00:53:00;2.03;;;1.00;;
25153;SDS011;47555;51.038;6.280;2023-04-01T00:55:27;2.05;;;1.00;;
25153;SDS011;47555;51.038;6.280;2023-04-01T00:57:55;1.02;;;0.93;;
25153;SDS011;47555;51.038;6.280;2023-04-01T01:00:23;0.80;;;0.77;;
25153;SDS011;47555;51.038;6.280;2023-04-01T01:02:48;1.20;;;0.82;;
25153;SDS011;47555;51.038;6.280;2023-04-01T01:05:16;4.05;;;1.00;;
25153;SDS011;47555;51.038;6.280;2023-04-01T01:07:52;0.95;;;0.70;;
25153;SDS011;47555;51.038;6.280;2023-04-01T01:10:38;1.02;;;0.70;;
25153;SDS011;47555;51.038;6.280;2023-04-01T01:13:11;2.15;;;0.90;;
25153;SDS011;47555;51.038;6.280;2023-04-01T01:15:47;2.47;;;0.68;;
25153;SDS011;47555;51.038;6.280;2023-04-01T01:18:53;1.48;;;0.70;;
25153;SDS011;47555;51.038;6.280;2023-04-01T01:27:10;3.22;;;0.90;;
25153;SDS011;47555;51.038;6.280;2023-04-01T01:35:22;1.35;;;0.88;;
25153;SDS011;47555;51.038;6.280;2023-04-01T01:38:03;2.42;;;0.85;;
25153;SDS011;47555;51.038;6.280;2023-04-01T01:40:34;3.17;;;1.10;;
25153;SDS011;47555;51.038;6.280;2023-04-01T01:43:03;3.03;;;1.30;;
25153;SDS011;47555;51.038;6.280;2023-04-01T01:45:32;1.67;;;0.90;;
25153;SDS011;47555;51.038;6.280;2023-04-01T01:48:01;1.05;;;1.00;;
25153;SDS011;47555;51.038;6.280;2023-04-01T01:50:30;1.35;;;0.98;;
25153;SDS011;47555;51.038;6.280;2023-04-01T01:53:00;2.95;;;1.02;;
25153;SDS011;47555;51.038;6.280;2023-04-01T01:58:11;1.77;;;1.00;;
25153;SDS011;47555;51.038;6.280;2023-04-01T02:00:38;3.42;;;1.30;;
25153;SDS011;47555;51.038;6.280;2023-04-01T02:03:06;2.17;;;0.98;;
25153;SDS011;47555;51.038;6.280;2023-04-01T02:05:32;1.17;;;0.80;;
25153;SDS011;47555;51.038;6.280;2023-04-01T02:08:06;3.58;;;0.95;;
25153;SDS011;47555;51.038;6.280;2023-04-01T02:10:37;2.38;;;0.80;;
25153;SDS011;47555;51.038;6.280;2023-04-01T02:13:15;1.60;;;1.08;;
25153;SDS011;47555;51.038;6.280;2023-04-01T02:15:46;1.00;;;0.90;;
25153;SDS011;47555;51.038;6.280;2023-04-01T02:18:13;1.98;;;1.08;;
25153;SDS011;47555;51.038;6.280;2023-04-01T02:20:41;0.80;;;0.75;;
25153;SDS011;47555;51.038;6.280;2023-04-01T02:23:07;0.68;;;0.68;;
25153;SDS011;47555;51.038;6.280;2023-04-01T02:25:35;2.35;;;0.93;;
25153;SDS011;47555;51.038;6.280;2023-04-01T02:28:02;0.90;;;0.60;;
25153;SDS011;47555;51.038;6.280;2023-04-01T02:30:31;0.98;;;0.80;;
25153;SDS011;47555;51.038;6.280;2023-04-01T02:32:59;2.80;;;0.73;;
25153;SDS011;47555;51.038;6.280;2023-04-01T02:35:26;0.82;;;0.60;;
25153;SDS011;47555;51.038;6.280;2023-04-01T02:37:52;2.20;;;0.60;;
25153;SDS011;47555;51.038;6.280;2023-04-01T02:40:20;1.17;;;1.02;;
25153;SDS011;47555;51.038;6.280;2023-04-01T02:42:46;2.53;;;0.80;;
25153;SDS011;47555;51.038;6.280;2023-04-01T02:45:12;1.58;;;0.80;;
25153;SDS011;47555;51.038;6.280;2023-04-01T02:47:38;0.82;;;0.80;;
25153;SDS011;47555;51.038;6.280;2023-04-01T02:50:04;0.70;;;0.70;;
25153;SDS011;47555;51.038;6.280;2023-04-01T02:52:31;3.22;;;0.68;;
25153;SDS011;47555;51.038;6.280;2023-04-01T02:54:56;0.85;;;0.73;;
25153;SDS011;47555;51.038;6.280;2023-04-01T02:57:22;1.77;;;0.90;;
25153;SDS011;47555;51.038;6.280;2023-04-01T02:59:49;2.17;;;1.00;;
25153;SDS011;47555;51.038;6.280;2023-04-01T03:02:14;1.13;;;0.85;;
25153;SDS011;47555;51.038;6.280;2023-04-01T03:04:41;0.60;;;0.60;;
25153;SDS011;47555;51.038;6.280;2023-04-01T03:07:07;0.70;;;0.70;;
25153;SDS011;47555;51.038;6.280;2023-04-01T03:09:35;0.90;;;0.90;;
25153;SDS011;47555;51.038;6.280;2023-04-01T03:12:01;2.17;;;0.65;;
25153;SDS011;47555;51.038;6.280;2023-04-01T03:14:27;0.70;;;0.70;;
25153;SDS011;47555;51.038;6.280;2023-04-01T03:16:53;1.25;;;0.80;;
25153;SDS011;47555;51.038;6.280;2023-04-01T03:19:18;1.27;;;0.82;;
25153;SDS011;47555;51.038;6.280;2023-04-01T03:21:44;2.85;;;1.00;;
25153;SDS011;47555;51.038;6.280;2023-04-01T03:24:09;1.17;;;0.90;;
25153;SDS011;47555;51.038;6.280;2023-04-01T03:26:35;1.27;;;0.73;;
25153;SDS011;47555;51.038;6.280;2023-04-01T03:29:01;1.20;;;0.70;;
25153;SDS011;47555;51.038;6.280;2023-04-01T03:31:26;1.77;;;1.10;;
25153;SDS011;47555;51.038;6.280;2023-04-01T03:33:52;2.00;;;1.00;;
25153;SDS011;47555;51.038;6.280;2023-04-01T03:36:18;2.30;;;1.05;;
25153;SDS011;47555;51.038;6.280;2023-04-01T03:38:44;0.70;;;0.70;;
25153;SDS011;47555;51.038;6.280;2023-04-01T03:41:16;1.95;;;0.80;;
25153;SDS011;47555;51.038;6.280;2023-04-01T03:43:42;1.65;;;0.80;;
25153;SDS011;47555;51.038;6.280;2023-04-01T03:46:08;0.98;;;0.80;;
25153;SDS011;47555;51.038;6.280;2023-04-01T03:48:34;1.60;;;0.90;;
25153;SDS011;47555;51.038;6.280;2023-04-01T03:51:00;1.42;;;0.80;;
25153;SDS011;47555;51.038;6.280;2023-04-01T03:53:26;1.80;;;0.70;;
25153;SDS011;47555;51.038;6.280;2023-04-01T03:55:52;1.10;;;0.90;;
25153;SDS011;47555;51.038;6.280;2023-04-01T03:58:18;0.73;;;0.73;;
25153;SDS011;47555;51.038;6.280;2023-04-01T04:00:44;1.23;;;0.70;;
25153;SDS011;47555;51.038;6.280;2023-04-01T04:03:10;0.82;;;0.77;;
25153;SDS011;47555;51.038;6.280;2023-04-01T04:05:36;0.80;;;0.80;;
25153;SDS011;47555;51.038;6.280;2023-04-01T04:08:01;2.00;;;0.88;;
25153;SDS011;47555;51.038;6.280;2023-04-01T04:10:28;0.75;;;0.75;;
25153;SDS011;47555;51.038;6.280;2023-04-01T04:12:54;1.05;;;0.73;;
25153;SDS011;47555;51.038;6.280;2023-04-01T04:15:20;0.82;;;0.70;;
25153;SDS011;47555;51.038;6.280;2023-04-01T04:17:47;1.02;;;0.85;;
25153;SDS011;47555;51.038;6.280;2023-04-01T04:20:13;2.72;;;1.20;;
25153;SDS011;47555;51.038;6.280;2023-04-01T04:22:39;1.75;;;1.00;;
25153;SDS011;47555;51.038;6.280;2023-04-01T04:25:05;1.65;;;1.08;;
25153;SDS011;47555;51.038;6.280;2023-04-01T04:27:32;1.83;;;1.10;;
25153;SDS011;47555;51.038;6.280;2023-04-01T04:29:58;2.45;;;1.27;;
25153;SDS011;47555;51.038;6.280;2023-04-01T04:32:24;3.83;;;1.30;;
25153;SDS011;47555;51.038;6.280;2023-04-01T04:34:49;1.20;;;1.00;;
25153;SDS011;47555;51.038;6.280;2023-04-01T04:37:15;2.15;;;1.42;;
25153;SDS011;47555;51.038;6.280;2023-04-01T04:39:41;2.30;;;1.27;;
25153;SDS011;47555;51.038;6.280;2023-04-01T04:42:06;2.15;;;1.20;;
25153;SDS011;47555;51.038;6.280;2023-04-01T04:44:32;1.85;;;1.17;;
25153;SDS011;47555;51.038;6.280;2023-04-01T04:46:57;1.20;;;1.10;;
25153;SDS011;47555;51.038;6.280;2023-04-01T04:49:23;2.53;;;1.55;;
25153;SDS011;47555;51.038;6.280;2023-04-01T04:51:49;1.20;;;1.10;;
25153;SDS011;47555;51.038;6.280;2023-04-01T04:54:15;2.30;;;1.10;;
25153;SDS011;47555;51.038;6.280;2023-04-01T04:56:40;1.40;;;1.23;;
25153;SDS011;47555;51.038;6.280;2023-04-01T04:59:06;1.20;;;1.10;;
25153;SDS011;47555;51.038;6.280;2023-04-01T05:01:32;1.77;;;1.00;;
25153;SDS011;47555;51.038;6.280;2023-04-01T05:03:58;1.15;;;1.05;;
25153;SDS011;47555;51.038;6.280;2023-04-01T05:06:25;1.73;;;1.00;;
25153;SDS011;47555;51.038;6.280;2023-04-01T05:08:54;0.95;;;0.90;;
25153;SDS011;47555;51.038;6.280;2023-04-01T05:11:21;1.45;;;1.30;;
25153;SDS011;47555;51.038;6.280;2023-04-01T05:13:47;1.38;;;1.00;;
25153;SDS011;47555;51.038;6.280;2023-04-01T05:16:14;2.15;;;1.20;;
25153;SDS011;47555;51.038;6.280;2023-04-01T05:18:42;1.65;;;1.08;;
25153;SDS011;47555;51.038;6.280;2023-04-01T05:21:09;2.08;;;1.83;;
25153;SDS011;47555;51.038;6.280;2023-04-01T05:23:38;2.15;;;1.20;;
25153;SDS011;47555;51.038;6.280;2023-04-01T05:26:08;2.45;;;0.98;;
25153;SDS011;47555;51.038;6.280;2023-04-01T05:28:36;2.60;;;1.35;;
25153;SDS011;47555;51.038;6.280;2023-04-01T05:31:03;3.80;;;1.25;;
25153;SDS011;47555;51.038;6.280;2023-04-01T05:33:30;2.22;;;1.65;;
25153;SDS011;47555;51.038;6.280;2023-04-01T05:35:56;2.15;;;1.20;;
25153;SDS011;47555;51.038;6.280;2023-04-01T05:38:40;3.25;;;1.30;;
25153;SDS011;47555;51.038;6.280;2023-04-01T05:41:07;2.53;;;1.13;;
25153;SDS011;47555;51.038;6.280;2023-04-01T05:43:35;1.30;;;1.20;;
25153;SDS011;47555;51.038;6.280;2023-04-01T05:46:01;1.88;;;1.50;;
25153;SDS011;47555;51.038;6.280;2023-04-01T05:48:26;1.30;;;1.10;;
25153;SDS011;47555;51.038;6.280;2023-04-01T05:50:52;1.20;;;1.10;;
25153;SDS011;47555;51.038;6.280;2023-04-01T05:53:17;2.17;;;1.40;;
25153;SDS011;47555;51.038;6.280;2023-04-01T05:55:43;1.20;;;1.10;;
25153;SDS011;47555;51.038;6.280;2023-04-01T05:58:09;1.90;;;1.20;;
25153;SDS011;47555;51.038;6.280;2023-04-01T06:00:34;1.80;;;1.42;;
25153;SDS011;47555;51.038;6.280;2023-04-01T06:03:00;2.58;;;1.55;;
25153;SDS011;47555;51.038;6.280;2023-04-01T06:05:29;2.78;;;1.52;;
25153;SDS011;47555;51.038;6.280;2023-04-01T06:08:05;3.45;;;1.45;;
25153;SDS011;47555;51.038;6.280;2023-04-01T06:16:47;3.08;;;1.95;;
25153;SDS011;47555;51.038;6.280;2023-04-01T06:27:51;2.42;;;1.63;;
25153;SDS011;47555;51.038;6.280;2023-04-01T06:31:03;2.90;;;1.80;;
25153;SDS011;47555;51.038;6.280;2023-04-01T06:33:30;4.65;;;1.55;;
25153;SDS011;47555;51.038;6.280;2023-04-01T06:45:03;4.35;;;2.30;;
25153;SDS011;47555;51.038;6.280;2023-04-01T06:53:14;7.43;;;2.30;;
25153;SDS011;47555;51.038;6.280;2023-04-01T06:55:51;3.47;;;2.05;;
25153;SDS011;47555;51.038;6.280;2023-04-01T06:58:36;3.85;;;2.00;;
25153;SDS011;47555;51.038;6.280;2023-04-01T07:01:07;3.78;;;2.25;;
25153;SDS011;47555;51.038;6.280;2023-04-01T07:03:41;6.20;;;2.25;;
25153;SDS011;47555;51.038;6.280;2023-04-01T07:06:22;2.75;;;2.15;;
25153;SDS011;47555;51.038;6.280;2023-04-01T07:08:52;2.90;;;2.00;;
25153;SDS011;47555;51.038;6.280;2023-04-01T07:11:31;3.72;;;2.05;;
25153;SDS011;47555;51.038;6.280;2023-04-01T07:14:04;3.58;;;2.15;;
25153;SDS011;47555;51.038;6.280;2023-04-01T07:17:14;3.72;;;2.30;;
25153;SDS011;47555;51.038;6.280;2023-04-01T07:19:50;4.60;;;2.25;;
25153;SDS011;47555;51.038;6.280;2023-04-01T07:22:29;2.42;;;1.85;;
25153;SDS011;47555;51.038;6.280;2023-04-01T07:25:11;3.67;;;2.13;;
25153;SDS011;47555;51.038;6.280;2023-04-01T07:27:43;3.55;;;2.10;;
25153;SDS011;47555;51.038;6.280;2023-04-01T07:30:16;2.85;;;1.90;;
25153;SDS011;47555;51.038;6.280;2023-04-01T07:40:47;5.30;;;2.00;;
25153;SDS011;47555;51.038;6.280;2023-04-01T07:43:38;2.47;;;1.85;;
25153;SDS011;47555;51.038;6.280;2023-04-01T07:50:05;3.35;;;2.00;;
25153;SDS011;47555;51.038;6.280;2023-04-01T07:53:03;2.58;;;1.80;;
25153;SDS011;47555;51.038;6.280;2023-04-01T07:55:41;4.10;;;1.98;;
25153;SDS011;47555;51.038;6.280;2023-04-01T08:01:08;1.98;;;1.77;;
25153;SDS011;47555;51.038;6.280;2023-04-01T08:06:19;2.33;;;1.52;;
25153;SDS011;47555;51.038;6.280;2023-04-01T08:11:51;2.63;;;1.90;;
25153;SDS011;47555;51.038;6.280;2023-04-01T08:17:50;2.15;;;1.95;;
25153;SDS011;47555;51.038;6.280;2023-04-01T08:20:41;3.60;;;2.20;;
25153;SDS011;47555;51.038;6.280;2023-04-01T08:31:26;3.15;;;2.58;;
25153;SDS011;47555;51.038;6.280;2023-04-01T08:34:07;3.33;;;2.30;;
25153;SDS011;47555;51.038;6.280;2023-04-01T08:36:41;2.95;;;2.55;;
25153;SDS011;47555;51.038;6.280;2023-04-01T08:44:33;3.10;;;2.58;;
25153;SDS011;47555;51.038;6.280;2023-04-01T08:47:34;4.78;;;2.70;;
25153;SDS011;47555;51.038;6.280;2023-04-01T08:52:52;2.85;;;2.55;;
25153;SDS011;47555;51.038;6.280;2023-04-01T08:58:58;3.22;;;2.92;;
25153;SDS011;47555;51.038;6.280;2023-04-01T09:10:22;3.53;;;3.17;;
25153;SDS011;47555;51.038;6.280;2023-04-01T09:28:01;4.63;;;3.05;;
25153;SDS011;47555;51.038;6.280;2023-04-01T09:33:34;4.15;;;3.40;;
25153;SDS011;47555;51.038;6.280;2023-04-01T09:38:59;4.30;;;3.80;;
25153;SDS011;47555;51.038;6.280;2023-04-01T09:52:48;5.57;;;3.95;;
25153;SDS011;47555;51.038;6.280;2023-04-01T10:12:24;5.30;;;4.57;;
25153;SDS011;47555;51.038;6.280;2023-04-01T10:32:32;5.88;;;4.40;;
25153;SDS011;47555;51.038;6.280;2023-04-01T10:35:25;6.85;;;4.72;;
25153;SDS011;47555;51.038;6.280;2023-04-01T10:49:41;6.68;;;4.88;;
25153;SDS011;47555;51.038;6.280;2023-04-01T10:52:32;6.38;;;4.47;;
25153;SDS011;47555;51.038;6.280;2023-04-01T10:55:27;8.02;;;5.00;;
25153;SDS011;47555;51.038;6.280;2023-04-01T11:03:25;6.97;;;4.47;;
25153;SDS011;47555;51.038;6.280;2023-04-01T11:06:17;6.93;;;4.28;;
25153;SDS011;47555;51.038;6.280;2023-04-01T11:12:33;7.38;;;4.82;;
25153;SDS011;47555;51.038;6.280;2023-04-01T11:30:16;4.63;;;3.30;;
25153;SDS011;47555;51.038;6.280;2023-04-01T11:32:52;6.15;;;3.90;;
25153;SDS011;47555;51.038;6.280;2023-04-01T11:35:50;6.15;;;4.28;;
25153;SDS011;47555;51.038;6.280;2023-04-01T11:41:37;5.07;;;4.00;;
25153;SDS011;47555;51.038;6.280;2023-04-01T11:44:18;6.10;;;4.18;;
25153;SDS011;47555;51.038;6.280;2023-04-01T11:52:18;4.78;;;3.85;;
25153;SDS011;47555;51.038;6.280;2023-04-01T11:55:05;5.38;;;3.33;;
25153;SDS011;47555;51.038;6.280;2023-04-01T11:57:47;5.43;;;4.00;;
25153;SDS011;47555;51.038;6.280;2023-04-01T12:00:28;5.32;;;3.83;;
25153;SDS011;47555;51.038;6.280;2023-04-01T12:03:33;4.53;;;3.70;;
25153;SDS011;47555;51.038;6.280;2023-04-01T12:06:30;4.65;;;3.30;;
25153;SDS011;47555;51.038;6.280;2023-04-01T12:14:59;3.17;;;2.70;;
25153;SDS011;47555;51.038;6.280;2023-04-01T12:23:19;5.22;;;3.53;;
25153;SDS011;47555;51.038;6.280;2023-04-01T12:31:46;4.07;;;3.45;;
25153;SDS011;47555;51.038;6.280;2023-04-01T12:37:21;4.57;;;3.45;;
25153;SDS011;47555;51.038;6.280;2023-04-01T12:40:38;4.07;;;3.08;;
25153;SDS011;47555;51.038;6.280;2023-04-01T12:54:18;3.30;;;2.50;;
25153;SDS011;47555;51.038;6.280;2023-04-01T12:57:16;3.17;;;2.50;;
25153;SDS011;47555;51.038;6.280;2023-04-01T13:07:45;4.75;;;2.40;;
25153;SDS011;47555;51.038;6.280;2023-04-01T13:16:01;3.13;;;2.60;;
25153;SDS011;47555;51.038;6.280;2023-04-01T13:24:31;3.25;;;2.33;;
25153;SDS011;47555;51.038;6.280;2023-04-01T13:27:25;2.58;;;2.38;;
25153;SDS011;47555;51.038;6.280;2023-04-01T13:33:01;2.45;;;2.20;;
25153;SDS011;47555;51.038;6.280;2023-04-01T13:35:43;2.88;;;2.03;;
25153;SDS011;47555;51.038;6.280;2023-04-01T13:43:49;3.08;;;2.65;;
25153;SDS011;47555;51.038;6.280;2023-04-01T13:46:35;4.63;;;3.00;;
25153;SDS011;47555;51.038;6.280;2023-04-01T13:49:29;3.60;;;2.88;;
25153;SDS011;47555;51.038;6.280;2023-04-01T13:58:23;5.13;;;3.80;;
25153;SDS011;47555;51.038;6.280;2023-04-01T14:04:01;5.70;;;4.03;;
25153;SDS011;47555;51.038;6.280;2023-04-01T14:06:51;5.57;;;3.65;;
25153;SDS011;47555;51.038;6.280;2023-04-01T14:14:56;5.97;;;5.18;;
25153;SDS011;47555;51.038;6.280;2023-04-01T14:24:14;5.93;;;4.15;;
25153;SDS011;47555;51.038;6.280;2023-04-01T14:35:33;6.88;;;3.88;;
25153;SDS011;47555;51.038;6.280;2023-04-01T14:38:12;4.72;;;4.00;;
25153;SDS011;47555;51.038;6.280;2023-04-01T14:47:04;4.95;;;4.25;;
25153;SDS011;47555;51.038;6.280;2023-04-01T14:49:41;6.70;;;4.07;;
25153;SDS011;47555;51.038;6.280;2023-04-01T14:52:22;5.05;;;3.53;;
25153;SDS011;47555;51.038;6.280;2023-04-01T14:55:01;5.07;;;3.58;;
25153;SDS011;47555;51.038;6.280;2023-04-01T14:57:44;6.15;;;3.90;;
25153;SDS011;47555;51.038;6.280;2023-04-01T15:00:25;5.20;;;3.60;;
25153;SDS011;47555;51.038;6.280;2023-04-01T15:05:42;5.72;;;4.03;;
25153;SDS011;47555;51.038;6.280;2023-04-01T15:08:24;5.72;;;4.07;;
25153;SDS011;47555;51.038;6.280;2023-04-01T15:19:48;5.13;;;3.97;;
25153;SDS011;47555;51.038;6.280;2023-04-01T15:22:40;4.82;;;3.42;;
25153;SDS011;47555;51.038;6.280;2023-04-01T15:25:34;4.75;;;3.50;;
25153;SDS011;47555;51.038;6.280;2023-04-01T15:28:26;5.10;;;3.05;;
25153;SDS011;47555;51.038;6.280;2023-04-01T15:31:04;4.78;;;3.50;;
25153;SDS011;47555;51.038;6.280;2023-04-01T15:33:48;3.90;;;3.22;;
25153;SDS011;47555;51.038;6.280;2023-04-01T15:36:44;5.05;;;3.70;;
25153;SDS011;47555;51.038;6.280;2023-04-01T15:45:17;4.78;;;3.25;;
25153;SDS011;47555;51.038;6.280;2023-04-01T15:51:07;5.13;;;3.55;;
25153;SDS011;47555;51.038;6.280;2023-04-01T15:59:24;5.68;;;4.20;;
25153;SDS011;47555;51.038;6.280;2023-04-01T16:06:10;4.40;;;2.92;;
25153;SDS011;47555;51.038;6.280;2023-04-01T16:08:44;3.95;;;3.03;;
25153;SDS011;47555;51.038;6.280;2023-04-01T16:14:28;4.25;;;3.08;;
25153;SDS011;47555;51.038;6.280;2023-04-01T16:17:25;3.42;;;2.85;;
25153;SDS011;47555;51.038;6.280;2023-04-01T16:22:44;5.32;;;3.70;;
25153;SDS011;47555;51.038;6.280;2023-04-01T16:28:15;4.55;;;3.40;;
25153;SDS011;47555;51.038;6.280;2023-04-01T16:31:03;5.57;;;3.45;;
25153;SDS011;47555;51.038;6.280;2023-04-01T16:36:47;5.47;;;3.33;;
25153;SDS011;47555;51.038;6.280;2023-04-01T16:39:54;4.72;;;3.45;;
25153;SDS011;47555;51.038;6.280;2023-04-01T16:45:36;4.82;;;3.35;;
25153;SDS011;47555;51.038;6.280;2023-04-01T16:53:42;5.53;;;3.67;;
25153;SDS011;47555;51.038;6.280;2023-04-01T16:56:25;4.68;;;3.35;;
25153;SDS011;47555;51.038;6.280;2023-04-01T16:59:10;5.38;;;3.72;;
25153;SDS011;47555;51.038;6.280;2023-04-01T17:02:01;6.30;;;4.53;;
25153;SDS011;47555;51.038;6.280;2023-04-01T17:05:19;5.03;;;3.72;;
25153;SDS011;47555;51.038;6.280;2023-04-01T17:30:02;7.75;;;5.18;;
25153;SDS011;47555;51.038;6.280;2023-04-01T17:32:47;9.65;;;5.35;;
25153;SDS011;47555;51.038;6.280;2023-04-01T17:43:52;7.75;;;5.25;;
25153;SDS011;47555;51.038;6.280;2023-04-01T17:54:29;9.93;;;4.80;;
25153;SDS011;47555;51.038;6.280;2023-04-01T18:00:19;7.63;;;5.22;;
25153;SDS011;47555;51.038;6.280;2023-04-01T18:03:18;7.25;;;5.10;;
25153;SDS011;47555;51.038;6.280;2023-04-01T18:16:43;7.72;;;4.65;;
25153;SDS011;47555;51.038;6.280;2023-04-01T18:25:19;5.47;;;3.97;;
25153;SDS011;47555;51.038;6.280;2023-04-01T18:27:57;4.90;;;3.60;;
25153;SDS011;47555;51.038;6.280;2023-04-01T18:30:53;5.78;;;3.65;;
25153;SDS011;47555;51.038;6.280;2023-04-01T18:39:01;5.28;;;3.88;;
25153;SDS011;47555;51.038;6.280;2023-04-01T18:41:53;4.78;;;3.88;;
25153;SDS011;47555;51.038;6.280;2023-04-01T18:44:43;6.57;;;4.10;;
25153;SDS011;47555;51.038;6.280;2023-04-01T18:52:41;5.47;;;3.90;;
25153;SDS011;47555;51.038;6.280;2023-04-01T18:57:58;5.72;;;4.43;;
25153;SDS011;47555;51.038;6.280;2023-04-01T19:00:41;5.78;;;4.05;;
25153;SDS011;47555;51.038;6.280;2023-04-01T19:03:32;6.05;;;4.10;;
25153;SDS011;47555;51.038;6.280;2023-04-01T19:06:09;6.63;;;4.07;;
25153;SDS011;47555;51.038;6.280;2023-04-01T19:09:17;5.80;;;3.80;;
25153;SDS011;47555;51.038;6.280;2023-04-01T19:11:50;7.82;;;4.88;;
25153;SDS011;47555;51.038;6.280;2023-04-01T19:14:48;7.00;;;4.32;;
25153;SDS011;47555;51.038;6.280;2023-04-01T19:20:22;8.40;;;5.28;;
25153;SDS011;47555;51.038;6.280;2023-04-01T19:23:25;8.65;;;5.07;;
25153;SDS011;47555;51.038;6.280;2023-04-01T19:26:03;7.80;;;5.20;;
25153;SDS011;47555;51.038;6.280;2023-04-01T19:34:00;6.72;;;4.47;;
25153;SDS011;47555;51.038;6.280;2023-04-01T19:36:53;6.75;;;4.97;;
25153;SDS011;47555;51.038;6.280;2023-04-01T19:50:34;9.50;;;5.95;;
25153;SDS011;47555;51.038;6.280;2023-04-01T19:55:56;7.25;;;4.50;;
25153;SDS011;47555;51.038;6.280;2023-04-01T19:58:50;8.38;;;4.28;;
25153;SDS011;47555;51.038;6.280;2023-04-01T20:01:27;9.32;;;5.05;;
25153;SDS011;47555;51.038;6.280;2023-04-01T20:04:08;8.07;;;4.78;;
25153;SDS011;47555;51.038;6.280;2023-04-01T20:12:25;6.72;;;4.50;;
25153;SDS011;47555;51.038;6.280;2023-04-01T20:15:04;7.20;;;4.30;;
25153;SDS011;47555;51.038;6.280;2023-04-01T20:18:18;7.43;;;4.97;;
25153;SDS011;47555;51.038;6.280;2023-04-01T20:23:41;9.30;;;5.22;;
25153;SDS011;47555;51.038;6.280;2023-04-01T20:26:13;8.10;;;4.80;;
25153;SDS011;47555;51.038;6.280;2023-04-01T20:34:21;7.55;;;4.90;;
25153;SDS011;47555;51.038;6.280;2023-04-01T20:43:01;8.13;;;5.47;;
25153;SDS011;47555;51.038;6.280;2023-04-01T20:45:47;8.13;;;5.30;;
25153;SDS011;47555;51.038;6.280;2023-04-01T21:05:38;10.30;;;6.25;;
25153;SDS011;47555;51.038;6.280;2023-04-01T21:08:25;10.00;;;6.03;;
25153;SDS011;47555;51.038;6.280;2023-04-01T21:13:33;9.52;;;6.45;;
25153;SDS011;47555;51.038;6.280;2023-04-01T21:19:03;9.48;;;6.05;;
25153;SDS011;47555;51.038;6.280;2023-04-01T21:24:30;10.63;;;5.60;;
25153;SDS011;47555;51.038;6.280;2023-04-01T21:36:03;10.27;;;5.65;;
25153;SDS011;47555;51.038;6.280;2023-04-01T21:47:01;6.30;;;4.40;;
25153;SDS011;47555;51.038;6.280;2023-04-01T22:06:56;11.38;;;6.57;;
25153;SDS011;47555;51.038;6.280;2023-04-01T22:09:39;15.48;;;7.78;;
25153;SDS011;47555;51.038;6.280;2023-04-01T22:12:20;14.93;;;8.30;;
25153;SDS011;47555;51.038;6.280;2023-04-01T22:17:53;19.48;;;9.43;;
25153;SDS011;47555;51.038;6.280;2023-04-01T22:23:21;20.15;;;10.10;;
25153;SDS011;47555;51.038;6.280;2023-04-01T22:31:05;18.08;;;9.60;;
25153;SDS011;47555;51.038;6.280;2023-04-01T22:36:42;14.75;;;7.53;;
25153;SDS011;47555;51.038;6.280;2023-04-01T22:47:51;9.68;;;5.55;;
25153;SDS011;47555;51.038;6.280;2023-04-01T22:54:14;8.05;;;4.78;;
25153;SDS011;47555;51.038;6.280;2023-04-01T22:56:26;6.75;;;4.53;;
25153;SDS011;47555;51.038;6.280;2023-04-01T22:58:57;6.85;;;4.78;;
25153;SDS011;47555;51.038;6.280;2023-04-01T23:01:30;7.90;;;5.13;;
25153;SDS011;47555;51.038;6.280;2023-04-01T23:04:03;7.03;;;4.88;;
25153;SDS011;47555;51.038;6.280;2023-04-01T23:06:34;7.38;;;5.00;;
25153;SDS011;47555;51.038;6.280;2023-04-01T23:11:44;8.10;;;5.32;;
25153;SDS011;47555;51.038;6.280;2023-04-01T23:16:47;6.68;;;4.35;;
25153;SDS011;47555;51.038;6.280;2023-04-01T23:19:40;6.97;;;4.18;;
25153;SDS011;47555;51.038;6.280;2023-04-01T23:22:16;7.78;;;4.65;;
25153;SDS011;47555;51.038;6.280;2023-04-01T23:24:52;7.78;;;4.57;;
25153;SDS011;47555;51.038;6.280;2023-04-01T23:27:28;7.22;;;4.30;;
25153;SDS011;47555;51.038;6.280;2023-04-01T23:29:59;5.82;;;4.13;;
25153;SDS011;47555;51.038;6.280;2023-04-01T23:32:25;6.82;;;4.03;;
25153;SDS011;47555;51.038;6.280;2023-04-01T23:34:52;6.55;;;4.43;;
25153;SDS011;47555;51.038;6.280;2023-04-01T23:37:21;7.07;;;5.25;;
25153;SDS011;47555;51.038;6.280;2023-04-01T23:39:51;12.60;;;6.20;;
25153;SDS011;47555;51.038;6.280;2023-04-01T23:44:45;10.73;;;6.50;;
25153;SDS011;47555;51.038;6.280;2023-04-01T23:47:17;10.07;;;6.47;;
25153;SDS011;47555;51.038;6.280;2023-04-01T23:49:50;10.15;;;6.13;;
25153;SDS011;47555;51.038;6.280;2023-04-01T23:52:21;10.65;;;6.82;;
25153;SDS011;47555;51.038;6.280;2023-04-01T23:57:27;11.00;;;5.93;;
